KERV

Kerrville Municipal / Louis Schreiner Field Airport

Kerrville, Texas, USA
METAR KERV 140435Z AUTO 00000KT 10SM CLR M03/M07 A3053 RMK AO2 T10321071
Observed Flight Rules
Nov-14 @ 04:35 UTC (24 minutes ago) Visual Flight Rules
Visibility Clouds
10 miles
  • Clear skies
Temperatures Readings
Current -3°C / 27°F
Dewpoint -7°C / 19°F
Humidity 74%
Altimeter 30.53" Hg
Pressure 1034 hPa
Elevation 510
METAR KERV 140435Z AUTO 00000KT 10SM CLR M03/M07 A3053 RMK AO2 T10321071
Observed Flight Rules
Nov-14 @ 04:35 UTC
(24 minutes ago)
VFR
Clouds
  • Clear skies
Temperature Dewpoint
-3°C / 27°F -7°C / 19°F
Humidity Altimeter Pressure
74% 30.53" Hg 1034 hPa